• Join FlightAware (Why Join?)
  • Login
  • US Flag 
12:13AM EST


 

Airport Tracker/Info


-or-


 

Live Flight TrackerFlight Track Log ✈ AAY861 ✈ 09-Jun-2014 ✈ KLEX - KPIE

Flight Track Log - Related Links

Times and Time Zones

All times are in EDT time to prevent confusion due to time zone crossing. See the AAY861 flight status page for this flight to view local times or setup timezone preferences in your user account.

Time Position Orientation Groundspeed Altitude Reporting Facility
EDT Latitude Longitude Course Direction KTS MPH feet Rate Location/Type
09:07AM 37.7731 -84.5873 164° South 298 343 10,400  Level FlightAware ADS-B
09:08AM 37.7194 -84.5653 164° South 301 346 11,200 1,740 Climbing Indianapolis Center
09:09AM 37.6228 -84.5286 163° South 354 407 13,500 2,220 Climbing Indianapolis Center
09:10AM 37.5247 -84.4917 163° South 363 418 15,800 2,040 Climbing Indianapolis Center
09:11AM 37.4239 -84.4536 163° South 373 429 17,700 1,680 Climbing Indianapolis Center
09:12AM 37.3189 -84.4150 164° South 386 444 19,300 1,740 Climbing Indianapolis Center
09:13AM 37.1933 -84.3658 163° South 400 460 21,300 1,680 Climbing Indianapolis Center
09:14AM 37.0800 -84.3247 164° South 416 479 22,800 1,320 Climbing Indianapolis Center
09:20AM 36.3203 -84.3002 182° South 439 505 30,900 1,200 Climbing FlightAware ADS-B (KMDQ)
09:21AM 36.2022 -84.3058 182° South 445 512 31,500 720 Climbing Indianapolis Center
09:22AM 36.0789 -84.3125 183° South 442 509 32,400 540 Climbing Indianapolis Center
09:28AM 35.4012 -84.3473 182° South 435 501 35,100 480 Climbing FlightAware ADS-B (KDZJ)
09:28AM 35.3191 -84.3514 182° South 435 501 35,600 660 Climbing FlightAware ADS-B (KDZJ)
09:29AM 35.2396 -84.3554 183° South 437 503 36,000 780 Climbing FlightAware ADS-B (KDZJ)
09:30AM 35.1539 -84.3598 182° South 435 501 36,700 720 Climbing FlightAware ADS-B (KDZJ)
09:30AM 35.0730 -84.3638 182° South 438 504 37,000 180 Climbing FlightAware ADS-B (KDZJ)
09:31AM 34.9896 -84.3679 182° South 437 503 37,000  Level FlightAware ADS-B (KDZJ)
09:32AM 34.9083 -84.3720 182° South 448 516 37,000  Level FlightAware ADS-B (KDZJ)
09:32AM 34.8246 -84.3761 182° South 449 517 37,000  Level FlightAware ADS-B (KDZJ)
09:33AM 34.7420 -84.3801 182° South 448 516 37,000  Level FlightAware ADS-B (KDZJ)
09:34AM 34.6610 -84.3842 182° South 447 514 37,000  Level FlightAware ADS-B (KDZJ)
09:34AM 34.5756 -84.3883 182° South 437 503 37,000  Level FlightAware ADS-B (KDZJ)
09:35AM 34.4938 -84.3924 182° South 432 497 37,000  Level FlightAware ADS-B (KDZJ)
09:36AM 34.4111 -84.3965 182° South 438 504 37,000  Level FlightAware ADS-B (KDZJ)
09:36AM 34.3317 -84.4005 182° South 436 502 37,000  Level FlightAware ADS-B (KDZJ)
09:37AM 34.2492 -84.4046 182° South 437 503 37,000  Level FlightAware ADS-B (KDZJ)
09:38AM 34.1679 -84.4087 182° South 434 499 37,000  Level FlightAware ADS-B (KDZJ)
09:38AM 34.0826 -84.4127 182° South 438 504 37,000  Level FlightAware ADS-B (KDZJ)
09:39AM 34.0014 -84.4166 182° South 448 516 37,000  Level FlightAware ADS-B (KDZJ)
09:40AM 33.9205 -84.4206 182° South 450 518 37,000  Level FlightAware ADS-B (KDZJ)
09:41AM 33.8208 -84.4264 182° South 461 531 37,000  Level Atlanta Center
09:42AM 33.6956 -84.4333 183° South 461 531 37,000  Level Atlanta Center
09:43AM 33.5808 -84.4353 181° South 461 531 37,000  Level Atlanta Center
09:44AM 33.4533 -84.4347 180° South 461 531 37,000  Level Atlanta Center
09:45AM 33.3281 -84.4317 179° South 456 525 37,000  Level Atlanta Center
09:46AM 33.2008 -84.4261 178° South 456 525 37,000  Level Atlanta Center
09:47AM 33.0778 -84.4281 181° South 456 525 37,000  Level Atlanta Center
09:48AM 32.9503 -84.4250 179° South 456 525 37,000  Level Atlanta Center
09:49AM 32.8231 -84.4219 179° South 456 525 37,000  Level Atlanta Center
09:50AM 32.6894 -84.4164 178° South 451 519 37,000  Level Atlanta Center
09:51AM 32.5622 -84.4183 181° South 451 519 37,000  Level Atlanta Center
09:52AM 32.4369 -84.4131 178° South 456 525 37,000  Level Atlanta Center
09:54AM 32.1389 -84.4014 178° South 467 537 37,000  Level Jacksonville Center
09:55AM 32.0181 -84.3725 169° South 456 525 37,000  Level Jacksonville Center
09:56AM 31.8950 -84.3461 170° South 450 518 37,000  Level Jacksonville Center
09:57AM 31.7744 -84.3172 168° South 445 512 37,000  Level Jacksonville Center
09:58AM 31.6536 -84.2936 171° South 445 512 37,000  Level Jacksonville Center
09:59AM 31.5328 -84.2650 169° South 445 512 37,000  Level Jacksonville Center
10:05AM 30.8780 -84.0547 164° South 439 505 37,000  Level FlightAware ADS-B (KTLH)
10:05AM 30.8091 -84.0318 164° South 440 506 37,000  Level FlightAware ADS-B (KTLH)
10:06AM 30.7411 -84.0092 164° South 440 506 37,000  Level FlightAware ADS-B (KTLH)
10:06AM 30.6810 -83.9890 164° South 439 505 37,000  Level FlightAware ADS-B (KTLH)
10:07AM 30.6206 -83.9688 164° South 438 504 37,000  Level FlightAware ADS-B (KTLH)
10:07AM 30.5520 -83.9460 164° South 438 504 37,000  Level FlightAware ADS-B
10:08AM 30.4863 -83.9243 164° South 437 503 37,000  Level FlightAware ADS-B (KTLH)
10:08AM 30.4368 -83.9079 164° South 438 504 37,000  Level FlightAware ADS-B (KTLH)
10:09AM 30.3581 -83.8818 164° South 440 506 37,000 -300 Level FlightAware ADS-B
10:10AM 30.2894 -83.8589 164° South 438 504 36,700 -660 Descending FlightAware ADS-B (KTLH)
10:10AM 30.2241 -83.8373 164° South 436 502 36,200 -900 Descending FlightAware ADS-B (KTLH)
10:11AM 30.1558 -83.8149 164° South 440 506 35,700 -1,020 Descending FlightAware ADS-B (KTLH)
10:12AM 30.0617 -83.7838 164° South 444 511 34,900 -1,020 Descending FlightAware ADS-B (KTLH)
10:12AM 30.0268 -83.7724 164° South 443 510 34,400 -960 Descending FlightAware ADS-B (KTLH)
10:13AM 29.8964 -83.7311 164° South 438 504 33,500 -900 Descending Jacksonville Center
10:14AM 29.7756 -83.6917 164° South 438 504 32,600 -960 Descending Jacksonville Center
10:15AM 29.6547 -83.6550 165° South 438 504 31,600 -1,020 Descending Jacksonville Center
10:16AM 29.5275 -83.6111 163° South 454 522 30,600 -1,020 Descending Jacksonville Center
10:17AM 29.4044 -83.5694 164° South 466 536 29,600 -1,200 Descending Jacksonville Center
10:18AM 29.2794 -83.5306 165° South 466 536 28,200 -1,800 Descending Jacksonville Center
10:19AM 29.1628 -83.4753 158° South 466 536 26,100 -2,100 Descending Jacksonville Center
10:20AM 29.0547 -83.4056 151° Southeast 451 519 24,100 -1,920 Descending Jacksonville Center
10:21AM 28.9464 -83.3339 150° Southeast 446 513 22,300 -1,920 Descending Jacksonville Center
10:23AM 28.7333 -83.2000 151° Southeast 420 483 18,600 -1,860 Descending Tampa TRACON
10:24AM 28.6500 -83.1500 152° Southeast 384 442 16,900 -1,980 Descending Tampa TRACON
10:25AM 28.5667 -83.1000 152° Southeast 372 428 14,900 -1,860 Descending Tampa TRACON
10:26AM 28.4667 -83.0333 150° Southeast 363 418 13,400 -1,020 Descending Tampa TRACON
10:27AM 28.4000 -82.9833 147° Southeast 320 368 12,900 -600 Descending Tampa TRACON
10:27AM 28.3622 -82.9786 174° South 321 369 12,500 -1,320 Descending Miami Center
10:28AM 28.2792 -82.9600 169° South 309 356 10,900 -1,560 Descending Miami Center
10:29AM 28.1972 -82.9400 168° South 304 350 9,300 -1,680 Descending Miami Center
10:30AM 28.0989 -82.9331 176° South 299 344 7,500 -1,560 Descending Miami Center
10:32AM 28.0186 -82.9267 176° South 293 337 6,100 -1,260 Descending Miami Center
10:33AM 27.9453 -82.9000 162° South 284 327 5,000 -1,020 Descending Miami Center
10:34AM 27.8781 -82.8667 156° South 277 319 4,100 -780 Descending Miami Center
10:35AM 27.8386 -82.8208 134° Southeast 234 269 3,400 -1,080 Descending Miami Center
10:36AM 27.8122 -82.7569 115° Southeast 227 261 1,900 -960 Descending Miami Center
10:37AM 27.8297 -82.6861 74° East 208 239 1,500 -600 Descending Miami Center
10:38AM 27.8703 -82.6825 North 173 199 700 -660 Descending Miami Center
10:39AM 27.9036 -82.6872 353° North 157 181 200 -540 Descending Miami Center